パラオ の空港の天気 - METARとTAF

パラオ国際空港 ( PTRO / ROR ) - パラオ アイライ州
飛行場実況気象(Metar)
観測時間10/02 00:50 PWT (10/01 15:50 UTC)
風向・風速静穏 0m/s
視程10km以上
天気現象
全天の8割程度の雲 雲底高度 460m
全天の8割程度の雲 雲底高度 3350m
全天の8割程度の雲 雲底高度 8840m
気温25℃
湿度94%
気圧1008hPa
METARPTRO 011550Z 00000KT 14SM BKN015CB BKN110 BKN290 25/24 A2977 RMK CB ALQDS
過去の天気等 Google飛行場航空写真 Wunderground天気予報

過去48時間のMETAR

飛行場予報(TAF)
発表時間: 10/01 20:28 PWT (10/01 11:28 UTC)
予報対象時間: 1日21時 PWT ~ 2日21時 PWT
風向・風速南南西 3m/s
視程10km以上
天気現象周辺でしゅう雨
全天の8割程度の雲 雲底高度 460m
全天の8割程度の雲 雲底高度 3660m
2日1時 PWT から
風向・風速南南西 3m/s
視程10km以上
天気現象周辺でしゅう雨
全天の4割程度の雲 雲底高度 460m
全天の8割程度の雲 雲底高度 3660m
2日1時 PWT ~ 2日5時 PWT に一時的に
全天の8割程度の雲 雲底高度 460m
全天の8割程度の雲 雲底高度 3050m
PTRO 011128Z 0112/0212 20005KT P6SM VCSH BKN015 BKN120
FM011600 20005KT P6SM VCSH SCT015 BKN120
TEMPO 0116/0120 BKN015 BKN100